Карточка аэропорта UAII

Внимание!
Информация на этой странице в стадии наполнения.
Если вы не увидели какой-то информации, или заметили неточность - пожалуйста сообщите нам!
Спасибо!
Команда RU-STAFF
Название аэропортаШымкент
Название аэропорта (англ.)Shymkent
Превышение1389 ft. (423.4 m.)
Координаты42°21.348', 69°28.734'
Высота перехода10000ft
Эшелон переходаFL120, QNH<733:FL130
Коды ответчика3430-3437, 3530-3537
Зона ОрВДШымкент РПИ (UAII)
Данные METARUAII 041030Z 03003MPS 350V060 9999 SCT040CB 05/M05 Q1025 NOSIG RMK QFE731/0975
Проноз погоды (TAF)UAII 040513Z 0406/0506 04003G08MPS 3100 BR SCT011 BKN030CB TX06/0408Z TNM03/0501Z TEMPO 0406/0414 29003G08MPS BKN005 TEMPO 0414/0503 12003G08MPS 0200 FZFG
NOTAMshow/hide NOTAM
AWOS   TABLE

Информация о ВПП

ВПП Длина ВПП (м.) Покрытие Курс ВПП Частота ILS
103300Железобетон106111.7
283300Железобетон286110.3

Диспетчерские позиции

Позывной Наименование органа УВД Частота
UAII_APPШымкент-Подход120.3
UAII_TWRШымкент Вышка125.9



Спутниковое изображение